This is the latest recevied weather packets stored in our database for station/object S53BL-10. If no packets are shown the sender has not sent any weather packets the latest 1 day(s).
| Time | Temp. | Humidity | Pressure | Rain* | Wind** | Luminosity | Snow |
|---|---|---|---|---|---|---|---|
| 1778099671 | 13.89° C | 98% | 1008.9 hPa | - | - | - | - |
| 1778098770 | 13.89° C | 98% | 1008.7 hPa | - | - | - | - |
| 1778096068 | 13.89° C | 97% | 1008.3 hPa | - | - | - | - |
| 1778095167 | 13.89° C | 99% | 1008.2 hPa | - | - | - | - |
| 1778091564 | 15° C | 87% | 1007.6 hPa | - | - | - | - |
| 1778090663 | 15° C | 87% | 1007.5 hPa | - | - | - | - |
| 1778089762 | 15.56° C | 85% | 1007.4 hPa | - | - | - | - |
| 1778086158 | 16.67° C | 86% | 1007.6 hPa | - | - | - | - |
| 1778083456 | 16.11° C | 85% | 1007.9 hPa | - | - | - | - |
| 1778082555 | 16.11° C | 86% | 1007.8 hPa | - | - | - | - |
| 1778078952 | 15.56° C | 96% | 1008.2 hPa | - | - | - | - |
| 1778076250 | 14.44° C | 100% | 1008.4 hPa | - | - | - | - |
| 1778074448 | 15° C | 98% | 1008.7 hPa | - | - | - | - |
| 1778070845 | 15° C | 96% | 1008.8 hPa | - | - | - | - |
| 1778066341 | 15° C | 100% | 1009.1 hPa | - | - | - | - |
| 1778063638 | 15° C | 96% | 1009.6 hPa | - | - | - | - |
| 1778062737 | 15° C | 99% | 1009.6 hPa | - | - | - | - |
| 1778061836 | 14.44° C | 95% | 1009.7 hPa | - | - | - | - |
| 1778060035 | 15° C | 96% | 1009.9 hPa | - | - | - | - |
| 1778059134 | 15.56° C | 98% | 1009.8 hPa | - | - | - | - |
| 1778058233 | 15.56° C | 100% | 1009.8 hPa | - | - | - | - |
| 1778057332 | 15° C | 100% | 1009.8 hPa | - | - | - | - |
| 1778055531 | 15° C | 89% | 1009.3 hPa | - | - | - | - |
| 1778054630 | 15.56° C | 88% | 1009.2 hPa | - | - | - | - |
| 1778053729 | 15.56° C | 86% | 1009 hPa | - | - | - | - |
* Rain since midnight (hover to see other rain measurements)
** Current wind speed in m/s (hover to see current wind gust speed)